Time;durP1;ratioP1;P1;durP2;ratioP2;P2;SDS_P1;SDS_P2;PMS_P1;PMS_P2;Temp;Humidity;BMP_temperature;BMP_pressure;BME280_temperature;BME280_humidity;BME280_pressure;Samples;Min_cycle;Max_cycle;Signal;HPM_P1;HPM_P2
2023/01/09 00:06:52;;;;;;;3.15;1.30;;;;;;;8.10;100.00;98541.06;20813552;28;20383;-72
2023/01/09 00:16:54;;;;;;;3.47;1.48;;;;;;;8.15;100.00;98533.06;20813013;28;20049;-72
2023/01/09 00:26:55;;;;;;;2.30;1.00;;;;;;;8.23;100.00;98531.00;20810742;28;20053;-72
2023/01/09 00:36:57;;;;;;;2.25;0.70;;;;;;;8.18;100.00;98518.16;20808826;28;20053;-72
2023/01/09 00:46:58;;;;;;;2.78;0.88;;;;;;;8.20;100.00;98520.72;20809700;28;20054;-72
2023/01/09 00:56:59;;;;;;;1.55;0.90;;;;;;;8.25;100.00;98507.53;20808828;28;20136;-71
2023/01/09 01:17:21;;;;;;;2.67;1.15;;;;;;;8.20;100.00;98515.50;20807469;28;20371;-70
2023/01/09 01:27:22;;;;;;;2.80;0.80;;;;;;;8.25;100.00;98529.22;20789038;28;20053;-71
2023/01/09 01:37:23;;;;;;;1.42;0.80;;;;;;;8.30;100.00;98537.72;20805047;28;20069;-71
2023/01/09 01:47:24;;;;;;;1.45;0.63;;;;;;;8.19;100.00;98550.28;20806013;28;20065;-71
2023/01/09 01:57:26;;;;;;;2.35;0.80;;;;;;;8.14;100.00;98539.16;20805857;28;20494;-71
2023/01/09 02:07:27;;;;;;;1.98;0.90;;;;;;;8.06;100.00;98539.44;20805111;28;20065;-71
2023/01/09 02:17:28;;;;;;;2.50;0.70;;;;;;;8.04;100.00;98556.03;20816895;28;20057;-71
2023/01/09 02:27:30;;;;;;;1.75;0.88;;;;;;;8.00;100.00;98565.75;20821716;28;20989;-71
2023/01/09 02:37:31;;;;;;;3.47;0.98;;;;;;;8.02;100.00;98573.50;20738541;23;20543;-80
2023/01/09 02:47:32;;;;;;;3.00;1.10;;;;;;;7.94;100.00;98597.19;20670454;28;20046;-80
2023/01/09 02:57:33;;;;;;;2.95;0.85;;;;;;;7.93;100.00;98627.63;20666676;28;20462;-80
2023/01/09 03:07:35;;;;;;;2.00;0.80;;;;;;;7.80;100.00;98652.38;20719496;28;20339;-80
2023/01/09 03:17:36;;;;;;;2.20;0.55;;;;;;;7.63;100.00;98667.72;20723137;28;20108;-82
2023/01/09 03:37:40;;;;;;;1.42;0.50;;;;;;;7.50;100.00;98663.78;20609119;28;20066;-72
2023/01/09 03:47:41;;;;;;;2.95;0.50;;;;;;;7.36;100.00;98730.13;20630142;23;20062;-73
2023/01/09 03:57:42;;;;;;;1.85;0.50;;;;;;;7.24;100.00;98759.16;20693841;28;20414;-72
2023/01/09 04:07:44;;;;;;;1.42;0.50;;;;;;;7.04;100.00;98780.53;20694425;28;20394;-71
2023/01/09 04:17:45;;;;;;;2.28;0.68;;;;;;;6.97;100.00;98809.34;20694747;28;20054;-71
2023/01/09 04:27:46;;;;;;;3.20;1.15;;;;;;;6.78;100.00;98814.19;20688932;28;20129;-70
2023/01/09 04:37:49;;;;;;;3.53;0.60;;;;;;;6.67;100.00;98841.31;20688004;28;20138;-71
2023/01/09 04:47:50;;;;;;;2.42;0.50;;;;;;;6.72;100.00;98869.81;20686643;28;20053;-71
2023/01/09 04:57:52;;;;;;;4.55;0.93;;;;;;;6.67;100.00;98875.13;20688128;28;20166;-71
2023/01/09 05:07:53;;;;;;;6.38;0.73;;;;;;;6.45;100.00;98888.66;20685674;28;20089;-70
2023/01/09 05:17:54;;;;;;;2.38;0.80;;;;;;;6.27;100.00;98916.78;20687184;28;20058;-70
2023/01/09 05:27:55;;;;;;;7.68;1.10;;;;;;;6.19;100.00;98942.09;20688759;28;20058;-69
2023/01/09 05:37:57;;;;;;;3.90;1.02;;;;;;;6.16;100.00;98950.81;20683041;28;20093;-70
2023/01/09 05:47:58;;;;;;;11.55;1.77;;;;;;;6.35;100.00;98938.25;20682966;28;20058;-70
2023/01/09 05:57:59;;;;;;;6.75;1.35;;;;;;;6.35;100.00;98940.88;20685807;28;20058;-70
2023/01/09 06:08:00;;;;;;;5.63;1.25;;;;;;;6.33;100.00;98953.06;20682928;28;20058;-69
2023/01/09 06:18:03;;;;;;;4.15;0.70;;;;;;;6.37;100.00;98978.09;20687207;28;20497;-69
2023/01/09 06:28:04;;;;;;;7.13;1.13;;;;;;;6.42;100.00;98978.84;20682276;28;20549;-69
2023/01/09 06:38:06;;;;;;;3.72;0.73;;;;;;;6.37;100.00;98998.00;20682771;28;20066;-70
2023/01/09 06:48:07;;;;;;;4.57;0.93;;;;;;;6.42;100.00;98998.81;20685025;28;20137;-70
2023/01/09 06:58:08;;;;;;;7.35;0.85;;;;;;;6.45;100.00;99014.31;20684616;28;20090;-70
2023/01/09 07:08:09;;;;;;;4.55;0.80;;;;;;;6.59;100.00;99014.88;20697557;28;20062;-70
2023/01/09 07:18:11;;;;;;;6.57;0.80;;;;;;;6.58;100.00;99005.38;20696816;28;20054;-70
2023/01/09 07:28:12;;;;;;;8.43;0.93;;;;;;;6.65;100.00;99013.88;20694574;28;20550;-71
2023/01/09 07:38:13;;;;;;;5.60;1.10;;;;;;;6.62;100.00;99032.16;20694392;28;20081;-71
2023/01/09 07:48:14;;;;;;;7.55;1.17;;;;;;;6.64;100.00;99041.63;20692886;28;20050;-71
2023/01/09 07:58:16;;;;;;;5.70;1.27;;;;;;;6.77;100.00;99031.81;20694612;28;20058;-71
2023/01/09 08:08:17;;;;;;;6.95;1.40;;;;;;;6.81;100.00;99032.63;20695140;28;20050;-71
2023/01/09 08:18:18;;;;;;;10.70;2.22;;;;;;;6.81;100.00;99043.88;20703195;28;20053;-70
2023/01/09 08:28:20;;;;;;;3.90;1.15;;;;;;;6.83;100.00;99036.88;20703538;28;20054;-71
2023/01/09 08:38:21;;;;;;;4.40;1.20;;;;;;;6.88;100.00;99034.19;20697091;28;20073;-70
2023/01/09 08:48:22;;;;;;;8.23;1.02;;;;;;;6.99;100.00;99039.13;20688461;28;20049;-70
2023/01/09 08:58:23;;;;;;;5.63;0.88;;;;;;;7.12;100.00;99045.78;20691276;28;20628;-70
2023/01/09 09:08:25;;;;;;;4.93;0.93;;;;;;;7.03;100.00;99066.81;20683399;28;20113;-68
2023/01/09 09:18:26;;;;;;;6.20;1.00;;;;;;;7.10;100.00;99068.38;20691481;28;20057;-67
2023/01/09 09:28:27;;;;;;;4.00;1.02;;;;;;;7.09;100.00;99057.13;20686643;28;20093;-67
2023/01/09 09:38:28;;;;;;;2.45;0.70;;;;;;;7.30;100.00;99042.72;20681698;28;20054;-67
2023/01/09 09:48:30;;;;;;;9.07;0.90;;;;;;;7.54;100.00;99024.78;20706193;23;20065;-72
2023/01/09 09:58:31;;;;;;;6.90;0.93;;;;;;;7.72;100.00;99043.41;20661609;28;20054;-70
2023/01/09 10:08:32;;;;;;;4.90;0.88;;;;;;;7.98;100.00;99047.94;20722162;28;20054;-70
2023/01/09 10:18:34;;;;;;;3.13;1.00;;;;;;;8.14;100.00;99044.91;20721853;28;20060;-71
2023/01/09 10:28:35;;;;;;;4.68;0.85;;;;;;;8.37;100.00;99050.34;20719870;28;20062;-71
2023/01/09 10:38:36;;;;;;;6.70;1.08;;;;;;;8.17;100.00;99053.50;20797197;28;20061;-69
2023/01/09 10:48:37;;;;;;;2.40;0.60;;;;;;;8.40;100.00;99034.63;20785358;28;20053;-69
2023/01/09 10:58:39;;;;;;;6.10;0.80;;;;;;;8.27;100.00;99048.03;20810613;28;20057;-71
2023/01/09 11:08:40;;;;;;;4.18;1.38;;;;;;;7.91;100.00;99045.53;20777880;28;20592;-71
2023/01/09 11:18:42;;;;;;;5.75;1.25;;;;;;;7.74;100.00;99064.22;20780783;28;20320;-71
2023/01/09 11:28:43;;;;;;;9.73;2.58;;;;;;;7.66;100.00;99063.53;20769069;28;20053;-76
2023/01/09 11:38:44;;;;;;;6.05;1.40;;;;;;;7.75;100.00;99065.06;20777378;28;20112;-77
2023/01/09 11:48:47;;;;;;;8.90;1.10;;;;;;;7.59;100.00;99062.00;20772498;28;20152;-77
2023/01/09 11:58:48;;;;;;;10.45;1.45;;;;;;;7.76;100.00;99046.81;20777154;28;20061;-78
2023/01/09 12:08:49;;;;;;;6.32;1.20;;;;;;;8.05;100.00;99035.59;20774406;28;20506;-78
2023/01/09 12:18:50;;;;;;;3.83;1.00;;;;;;;8.25;100.00;99011.56;20786509;28;20049;-73
2023/01/09 12:28:52;;;;;;;8.88;1.40;;;;;;;7.49;100.00;99006.69;20789428;28;20119;-79
2023/01/09 12:38:53;;;;;;;5.43;0.90;;;;;;;7.43;100.00;99009.44;20786890;28;20050;-79
2023/01/09 12:48:54;;;;;;;9.35;1.52;;;;;;;7.66;100.00;99050.50;20776690;28;20501;-77
2023/01/09 12:58:56;;;;;;;6.10;0.93;;;;;;;8.12;100.00;99059.75;20775068;28;20095;-74
2023/01/09 13:08:57;;;;;;;2.58;0.77;;;;;;;8.30;100.00;99080.09;20771091;28;20426;-74
2023/01/09 13:18:58;;;;;;;4.45;0.77;;;;;;;7.68;100.00;99086.06;20760906;28;20053;-76
2023/01/09 13:29:02;;;;;;;3.22;0.60;;;;;;;7.41;100.00;99087.59;20771959;28;20104;-74
2023/01/09 13:39:03;;;;;;;3.58;0.80;;;;;;;7.41;100.00;99098.00;20759354;28;20467;-74
2023/01/09 13:49:04;;;;;;;5.45;0.70;;;;;;;7.70;100.00;99127.69;20768390;28;20107;-75
2023/01/09 13:59:08;;;;;;;4.70;1.25;;;;;;;7.70;100.00;99141.59;20766788;28;20100;-75
2023/01/09 14:09:09;;;;;;;3.47;0.70;;;;;;;7.40;100.00;99153.59;20757920;28;20054;-75
2023/01/09 14:19:10;;;;;;;2.83;1.23;;;;;;;7.08;100.00;99158.66;20787344;28;20060;-77
2023/01/09 14:29:12;;;;;;;2.88;0.60;;;;;;;6.89;100.00;99179.84;20793506;28;20057;-79
2023/01/09 14:39:13;;;;;;;3.47;1.15;;;;;;;6.86;100.00;99192.06;20788634;28;20053;-76
2023/01/09 14:49:14;;;;;;;3.38;0.82;;;;;;;6.90;100.00;99227.56;20792565;28;20057;-79
2023/01/09 14:59:16;;;;;;;4.13;1.15;;;;;;;6.85;100.00;99244.97;20784038;28;20476;-77
2023/01/09 15:09:17;;;;;;;6.25;0.95;;;;;;;6.79;100.00;99271.13;20798442;28;20103;-78
2023/01/09 15:19:18;;;;;;;5.40;1.50;;;;;;;6.61;100.00;99283.59;20786926;28;20072;-79
2023/01/09 15:29:20;;;;;;;6.57;1.58;;;;;;;6.54;100.00;99289.75;20814914;28;20049;-75
2023/01/09 15:39:21;;;;;;;6.00;1.50;;;;;;;6.41;100.00;99294.31;20783411;28;20054;-77
2023/01/09 15:49:22;;;;;;;6.50;1.52;;;;;;;6.36;100.00;99308.28;20782698;23;20068;-69
2023/01/09 15:59:25;;;;;;;8.05;2.20;;;;;;;6.53;100.00;99308.84;20768430;28;20069;-69
2023/01/09 16:09:27;;;;;;;10.55;2.75;;;;;;;6.54;100.00;99320.97;20772020;28;20060;-69
2023/01/09 16:19:28;;;;;;;13.05;4.32;;;;;;;6.60;100.00;99346.00;20774079;28;20091;-69
2023/01/09 16:29:29;;;;;;;11.48;3.85;;;;;;;6.58;100.00;99369.44;20774294;28;20521;-69
2023/01/09 16:39:30;;;;;;;10.60;2.10;;;;;;;6.59;100.00;99376.38;20767533;28;20058;-69
2023/01/09 16:49:32;;;;;;;7.60;1.67;;;;;;;6.48;100.00;99391.28;20774364;28;20053;-70
2023/01/09 16:59:33;;;;;;;9.50;1.80;;;;;;;6.40;100.00;99426.94;20761631;28;20578;-72
2023/01/09 17:09:36;;;;;;;7.85;2.13;;;;;;;6.23;100.00;99447.97;20771512;28;20541;-72
2023/01/09 17:19:37;;;;;;;9.32;2.63;;;;;;;6.02;100.00;99471.63;20759694;28;20525;-73
2023/01/09 17:29:39;;;;;;;11.10;2.92;;;;;;;6.07;100.00;99490.63;20769605;28;20054;-72
2023/01/09 17:39:40;;;;;;;7.75;2.30;;;;;;;6.14;100.00;99505.28;20759843;28;20478;-72
2023/01/09 17:49:41;;;;;;;6.00;1.80;;;;;;;6.08;100.00;99523.53;20767136;28;20466;-73
2023/01/09 17:59:43;;;;;;;6.60;2.15;;;;;;;6.06;100.00;99544.34;20761504;28;20505;-72
2023/01/09 18:09:45;;;;;;;5.22;1.80;;;;;;;6.07;100.00;99559.03;20760834;28;20046;-72
2023/01/09 18:19:46;;;;;;;6.25;2.00;;;;;;;6.06;100.00;99574.66;20768683;28;20434;-71
2023/01/09 18:29:48;;;;;;;7.45;2.45;;;;;;;6.02;100.00;99593.75;20750595;28;20064;-70
2023/01/09 18:39:49;;;;;;;6.93;2.65;;;;;;;6.07;100.00;99611.03;20761149;28;20056;-70
2023/01/09 18:49:51;;;;;;;6.75;2.83;;;;;;;6.10;100.00;99625.75;20747596;28;20136;-70
2023/01/09 18:59:52;;;;;;;5.95;1.90;;;;;;;6.05;100.00;99633.56;20778996;28;20049;-70
2023/01/09 19:09:53;;;;;;;6.68;2.30;;;;;;;6.05;100.00;99653.50;20765010;28;20563;-71
2023/01/09 19:19:54;;;;;;;7.10;2.00;;;;;;;5.95;100.00;99678.72;20776203;28;20054;-70
2023/01/09 19:29:55;;;;;;;9.20;1.60;;;;;;;5.96;100.00;99684.78;20767289;28;20489;-70
2023/01/09 19:39:57;;;;;;;7.85;2.08;;;;;;;5.90;100.00;99686.50;20767372;28;20417;-69
2023/01/09 19:49:58;;;;;;;4.18;1.90;;;;;;;5.63;100.00;99691.91;20766330;28;20057;-71
2023/01/09 19:59:59;;;;;;;10.02;3.28;;;;;;;5.71;100.00;99721.28;20762119;28;20124;-70
2023/01/09 20:10:01;;;;;;;5.75;2.42;;;;;;;5.77;100.00;99734.22;20767316;28;20046;-69
2023/01/09 20:20:02;;;;;;;8.90;4.78;;;;;;;5.76;100.00;99750.69;20756134;28;20398;-69
2023/01/09 20:30:03;;;;;;;10.23;3.50;;;;;;;5.73;100.00;99750.72;20749506;28;20054;-69
2023/01/09 20:40:04;;;;;;;7.30;3.35;;;;;;;5.82;100.00;99761.03;20753721;28;20077;-70
2023/01/09 20:50:06;;;;;;;10.30;2.70;;;;;;;5.83;100.00;99777.47;20765779;28;20053;-70
2023/01/09 21:00:10;;;;;;;7.47;2.95;;;;;;;5.85;100.00;99789.59;20755443;28;20084;-70
2023/01/09 21:10:11;;;;;;;9.73;3.10;;;;;;;5.94;100.00;99813.81;20767701;28;20046;-70
2023/01/09 21:20:13;;;;;;;10.13;2.88;;;;;;;6.00;100.00;99816.41;20759956;28;20060;-71
2023/01/09 21:30:14;;;;;;;6.80;2.05;;;;;;;5.98;100.00;99831.97;20765309;28;20054;-72
2023/01/09 21:40:16;;;;;;;8.07;2.00;;;;;;;6.03;100.00;99840.59;20761627;28;20076;-69
2023/01/09 21:50:18;;;;;;;4.85;1.30;;;;;;;5.93;100.00;99851.94;20813176;23;20045;-81
2023/01/09 22:00:19;;;;;;;2.28;0.98;;;;;;;5.89;100.00;99887.44;20878045;28;20083;-81
2023/01/09 22:10:30;;;;;;;;;;;;;;;;;;;;;
2023/01/09 22:20:34;;;;;;;1.45;0.60;;;;;;;5.66;100.00;99920.44;20911253;28;20632;-81
2023/01/09 22:30:35;;;;;;;2.40;0.70;;;;;;;5.64;100.00;99961.13;20886448;28;20053;-81
2023/01/09 22:40:37;;;;;;;2.88;0.88;;;;;;;5.68;100.00;99986.22;20903990;28;20148;-81
2023/01/09 22:50:39;;;;;;;2.17;0.85;;;;;;;5.61;100.00;99987.13;20905747;28;20117;-81
2023/01/09 23:00:40;;;;;;;4.65;0.95;;;;;;;5.68;100.00;100009.59;20894678;28;20060;-82
2023/01/09 23:10:42;;;;;;;1.88;0.60;;;;;;;5.57;100.00;100020.03;20895078;28;20083;-81
2023/01/09 23:20:43;;;;;;;3.58;0.95;;;;;;;5.60;100.00;100035.56;20908437;28;20198;-80
2023/01/09 23:30:44;;;;;;;3.78;1.02;;;;;;;5.60;100.00;100037.31;20904591;28;20140;-80
2023/01/09 23:40:46;;;;;;;3.95;1.13;;;;;;;5.60;100.00;100056.34;20938632;28;20049;-81
2023/01/09 23:50:47;;;;;;;3.35;0.98;;;;;;;5.65;100.00;100079.72;20886877;28;20042;-81
